sensor_id;sensor_type;location;lat;lon;timestamp;P1;durP1;ratioP1;P2;durP2;ratioP2
50932;SDS011;36921;49.006;9.292;2023-11-19T00:00:06;5.78;;;3.03;;
50932;SDS011;36921;49.006;9.292;2023-11-19T00:02:37;7.40;;;4.20;;
50932;SDS011;36921;49.006;9.292;2023-11-19T00:07:37;6.07;;;3.15;;
50932;SDS011;36921;49.006;9.292;2023-11-19T00:10:09;7.30;;;2.85;;
50932;SDS011;36921;49.006;9.292;2023-11-19T00:12:44;6.00;;;2.45;;
50932;SDS011;36921;49.006;9.292;2023-11-19T00:15:12;4.13;;;2.10;;
50932;SDS011;36921;49.006;9.292;2023-11-19T00:17:42;5.15;;;2.45;;
50932;SDS011;36921;49.006;9.292;2023-11-19T00:20:13;4.25;;;2.33;;
50932;SDS011;36921;49.006;9.292;2023-11-19T00:22:42;6.30;;;2.25;;
50932;SDS011;36921;49.006;9.292;2023-11-19T00:25:08;4.05;;;2.08;;
50932;SDS011;36921;49.006;9.292;2023-11-19T00:27:34;8.68;;;2.85;;
50932;SDS011;36921;49.006;9.292;2023-11-19T00:30:00;3.55;;;2.00;;
50932;SDS011;36921;49.006;9.292;2023-11-19T00:32:25;5.78;;;2.40;;
50932;SDS011;36921;49.006;9.292;2023-11-19T00:34:50;4.07;;;2.10;;
50932;SDS011;36921;49.006;9.292;2023-11-19T00:37:16;5.15;;;2.40;;
50932;SDS011;36921;49.006;9.292;2023-11-19T00:39:42;4.57;;;2.50;;
50932;SDS011;36921;49.006;9.292;2023-11-19T00:42:08;12.55;;;2.30;;
50932;SDS011;36921;49.006;9.292;2023-11-19T00:44:35;3.65;;;2.20;;
50932;SDS011;36921;49.006;9.292;2023-11-19T00:47:00;4.13;;;2.70;;
50932;SDS011;36921;49.006;9.292;2023-11-19T00:49:26;4.20;;;2.28;;
50932;SDS011;36921;49.006;9.292;2023-11-19T00:51:51;6.57;;;2.38;;
50932;SDS011;36921;49.006;9.292;2023-11-19T00:54:16;4.35;;;2.10;;
50932;SDS011;36921;49.006;9.292;2023-11-19T00:56:42;3.85;;;1.95;;
50932;SDS011;36921;49.006;9.292;2023-11-19T00:59:07;6.65;;;2.10;;
50932;SDS011;36921;49.006;9.292;2023-11-19T01:01:32;3.20;;;2.00;;
50932;SDS011;36921;49.006;9.292;2023-11-19T01:03:58;7.40;;;2.65;;
50932;SDS011;36921;49.006;9.292;2023-11-19T01:06:27;4.35;;;2.40;;
50932;SDS011;36921;49.006;9.292;2023-11-19T01:08:56;5.00;;;2.72;;
50932;SDS011;36921;49.006;9.292;2023-11-19T01:11:22;6.78;;;2.55;;
50932;SDS011;36921;49.006;9.292;2023-11-19T01:13:48;4.28;;;2.03;;
50932;SDS011;36921;49.006;9.292;2023-11-19T01:16:13;4.28;;;2.20;;
50932;SDS011;36921;49.006;9.292;2023-11-19T01:18:39;3.03;;;2.00;;
50932;SDS011;36921;49.006;9.292;2023-11-19T01:21:04;4.28;;;2.70;;
50932;SDS011;36921;49.006;9.292;2023-11-19T01:23:30;2.72;;;1.85;;
50932;SDS011;36921;49.006;9.292;2023-11-19T01:25:56;5.32;;;2.30;;
50932;SDS011;36921;49.006;9.292;2023-11-19T01:28:21;5.93;;;2.45;;
50932;SDS011;36921;49.006;9.292;2023-11-19T01:30:46;4.32;;;2.30;;
50932;SDS011;36921;49.006;9.292;2023-11-19T01:33:12;4.78;;;2.45;;
50932;SDS011;36921;49.006;9.292;2023-11-19T01:35:37;5.70;;;2.60;;
50932;SDS011;36921;49.006;9.292;2023-11-19T01:38:02;3.83;;;2.20;;
50932;SDS011;36921;49.006;9.292;2023-11-19T01:40:28;4.85;;;2.60;;
50932;SDS011;36921;49.006;9.292;2023-11-19T01:42:53;5.53;;;2.50;;
50932;SDS011;36921;49.006;9.292;2023-11-19T01:45:27;4.45;;;2.10;;
50932;SDS011;36921;49.006;9.292;2023-11-19T01:47:54;5.30;;;2.38;;
50932;SDS011;36921;49.006;9.292;2023-11-19T01:50:19;3.63;;;1.95;;
50932;SDS011;36921;49.006;9.292;2023-11-19T01:52:45;4.30;;;2.30;;
50932;SDS011;36921;49.006;9.292;2023-11-19T01:55:11;3.83;;;2.00;;
50932;SDS011;36921;49.006;9.292;2023-11-19T01:57:37;3.17;;;1.85;;
50932;SDS011;36921;49.006;9.292;2023-11-19T02:00:03;5.97;;;1.95;;
50932;SDS011;36921;49.006;9.292;2023-11-19T02:02:29;4.63;;;2.15;;
50932;SDS011;36921;49.006;9.292;2023-11-19T02:04:55;4.20;;;2.30;;
50932;SDS011;36921;49.006;9.292;2023-11-19T02:07:21;3.30;;;2.13;;
50932;SDS011;36921;49.006;9.292;2023-11-19T02:09:46;7.72;;;2.60;;
50932;SDS011;36921;49.006;9.292;2023-11-19T02:12:12;4.70;;;2.08;;
50932;SDS011;36921;49.006;9.292;2023-11-19T02:14:37;3.67;;;2.10;;
50932;SDS011;36921;49.006;9.292;2023-11-19T02:17:03;4.50;;;2.65;;
50932;SDS011;36921;49.006;9.292;2023-11-19T02:19:29;7.85;;;2.97;;
50932;SDS011;36921;49.006;9.292;2023-11-19T02:21:55;3.75;;;2.72;;
50932;SDS011;36921;49.006;9.292;2023-11-19T02:24:21;7.93;;;3.03;;
50932;SDS011;36921;49.006;9.292;2023-11-19T02:29:25;6.05;;;2.63;;
50932;SDS011;36921;49.006;9.292;2023-11-19T02:31:51;5.07;;;2.90;;
50932;SDS011;36921;49.006;9.292;2023-11-19T02:34:16;5.93;;;2.63;;
50932;SDS011;36921;49.006;9.292;2023-11-19T02:36:41;3.75;;;2.10;;
50932;SDS011;36921;49.006;9.292;2023-11-19T02:39:07;3.88;;;2.00;;
50932;SDS011;36921;49.006;9.292;2023-11-19T02:41:36;5.53;;;2.33;;
50932;SDS011;36921;49.006;9.292;2023-11-19T02:44:01;3.72;;;2.00;;
50932;SDS011;36921;49.006;9.292;2023-11-19T02:46:26;3.50;;;2.30;;
50932;SDS011;36921;49.006;9.292;2023-11-19T02:48:52;4.50;;;2.40;;
50932;SDS011;36921;49.006;9.292;2023-11-19T02:51:17;4.88;;;2.20;;
50932;SDS011;36921;49.006;9.292;2023-11-19T02:53:43;9.82;;;3.78;;
50932;SDS011;36921;49.006;9.292;2023-11-19T02:56:09;6.53;;;4.30;;
50932;SDS011;36921;49.006;9.292;2023-11-19T02:58:44;5.95;;;4.20;;
50932;SDS011;36921;49.006;9.292;2023-11-19T03:01:11;6.70;;;3.38;;
50932;SDS011;36921;49.006;9.292;2023-11-19T03:03:48;5.15;;;3.35;;
50932;SDS011;36921;49.006;9.292;2023-11-19T03:06:18;6.28;;;3.80;;
50932;SDS011;36921;49.006;9.292;2023-11-19T03:08:44;9.77;;;3.85;;
50932;SDS011;36921;49.006;9.292;2023-11-19T03:11:09;5.75;;;3.63;;
50932;SDS011;36921;49.006;9.292;2023-11-19T03:13:34;6.82;;;3.55;;
50932;SDS011;36921;49.006;9.292;2023-11-19T03:15:59;8.45;;;3.78;;
50932;SDS011;36921;49.006;9.292;2023-11-19T03:18:25;11.10;;;4.82;;
50932;SDS011;36921;49.006;9.292;2023-11-19T03:20:50;10.57;;;4.88;;
50932;SDS011;36921;49.006;9.292;2023-11-19T03:23:15;9.50;;;5.10;;
50932;SDS011;36921;49.006;9.292;2023-11-19T03:25:41;10.95;;;5.82;;
50932;SDS011;36921;49.006;9.292;2023-11-19T03:28:06;11.10;;;4.90;;
50932;SDS011;36921;49.006;9.292;2023-11-19T03:30:31;5.63;;;3.55;;
50932;SDS011;36921;49.006;9.292;2023-11-19T03:32:57;8.77;;;3.83;;
50932;SDS011;36921;49.006;9.292;2023-11-19T03:35:23;5.30;;;3.20;;
50932;SDS011;36921;49.006;9.292;2023-11-19T03:37:49;6.38;;;3.05;;
50932;SDS011;36921;49.006;9.292;2023-11-19T03:40:15;8.50;;;2.55;;
50932;SDS011;36921;49.006;9.292;2023-11-19T03:42:41;5.20;;;2.50;;
50932;SDS011;36921;49.006;9.292;2023-11-19T03:45:06;13.55;;;4.07;;
50932;SDS011;36921;49.006;9.292;2023-11-19T03:47:33;5.82;;;2.67;;
50932;SDS011;36921;49.006;9.292;2023-11-19T03:49:59;6.10;;;3.25;;
50932;SDS011;36921;49.006;9.292;2023-11-19T03:52:24;5.97;;;2.70;;
50932;SDS011;36921;49.006;9.292;2023-11-19T03:54:51;2.80;;;1.70;;
50932;SDS011;36921;49.006;9.292;2023-11-19T03:57:17;5.35;;;2.30;;
50932;SDS011;36921;49.006;9.292;2023-11-19T03:59:43;3.97;;;2.38;;
50932;SDS011;36921;49.006;9.292;2023-11-19T04:02:09;5.10;;;3.15;;
50932;SDS011;36921;49.006;9.292;2023-11-19T04:04:35;5.30;;;2.97;;
50932;SDS011;36921;49.006;9.292;2023-11-19T04:07:00;3.95;;;2.53;;
50932;SDS011;36921;49.006;9.292;2023-11-19T04:09:27;7.18;;;2.92;;
50932;SDS011;36921;49.006;9.292;2023-11-19T04:11:53;4.07;;;2.58;;
50932;SDS011;36921;49.006;9.292;2023-11-19T04:14:18;5.13;;;2.97;;
50932;SDS011;36921;49.006;9.292;2023-11-19T04:16:44;4.85;;;2.83;;
50932;SDS011;36921;49.006;9.292;2023-11-19T04:19:10;5.65;;;2.70;;
50932;SDS011;36921;49.006;9.292;2023-11-19T04:21:35;7.47;;;3.17;;
50932;SDS011;36921;49.006;9.292;2023-11-19T04:24:01;4.78;;;2.80;;
50932;SDS011;36921;49.006;9.292;2023-11-19T04:26:26;4.18;;;2.33;;
50932;SDS011;36921;49.006;9.292;2023-11-19T04:28:51;2.63;;;1.45;;
50932;SDS011;36921;49.006;9.292;2023-11-19T04:31:17;3.22;;;1.35;;
50932;SDS011;36921;49.006;9.292;2023-11-19T04:33:42;3.67;;;1.45;;
50932;SDS011;36921;49.006;9.292;2023-11-19T04:36:08;2.83;;;1.40;;
50932;SDS011;36921;49.006;9.292;2023-11-19T04:38:34;2.97;;;1.48;;
50932;SDS011;36921;49.006;9.292;2023-11-19T04:40:59;2.40;;;1.38;;
50932;SDS011;36921;49.006;9.292;2023-11-19T04:43:25;6.63;;;1.67;;
50932;SDS011;36921;49.006;9.292;2023-11-19T04:45:50;3.15;;;1.65;;
50932;SDS011;36921;49.006;9.292;2023-11-19T04:48:16;3.88;;;2.20;;
50932;SDS011;36921;49.006;9.292;2023-11-19T04:50:41;4.30;;;2.47;;
50932;SDS011;36921;49.006;9.292;2023-11-19T04:53:06;3.75;;;2.38;;
50932;SDS011;36921;49.006;9.292;2023-11-19T04:55:31;4.05;;;2.25;;
50932;SDS011;36921;49.006;9.292;2023-11-19T04:57:57;3.38;;;1.90;;
50932;SDS011;36921;49.006;9.292;2023-11-19T05:00:22;3.88;;;1.83;;
50932;SDS011;36921;49.006;9.292;2023-11-19T05:02:48;5.55;;;2.08;;
50932;SDS011;36921;49.006;9.292;2023-11-19T05:05:15;6.43;;;2.15;;
50932;SDS011;36921;49.006;9.292;2023-11-19T05:07:40;3.45;;;1.90;;
50932;SDS011;36921;49.006;9.292;2023-11-19T05:10:06;5.00;;;2.33;;
50932;SDS011;36921;49.006;9.292;2023-11-19T05:12:32;1.95;;;1.35;;
50932;SDS011;36921;49.006;9.292;2023-11-19T05:14:57;3.22;;;1.95;;
50932;SDS011;36921;49.006;9.292;2023-11-19T05:17:23;8.70;;;1.88;;
50932;SDS011;36921;49.006;9.292;2023-11-19T05:19:48;2.72;;;1.70;;
50932;SDS011;36921;49.006;9.292;2023-11-19T05:22:14;2.72;;;1.60;;
50932;SDS011;36921;49.006;9.292;2023-11-19T05:24:39;2.05;;;1.30;;
50932;SDS011;36921;49.006;9.292;2023-11-19T05:27:05;2.10;;;1.00;;
50932;SDS011;36921;49.006;9.292;2023-11-19T05:29:32;2.53;;;1.20;;
50932;SDS011;36921;49.006;9.292;2023-11-19T05:31:58;1.60;;;1.10;;
50932;SDS011;36921;49.006;9.292;2023-11-19T05:34:23;3.88;;;1.08;;
50932;SDS011;36921;49.006;9.292;2023-11-19T05:36:49;1.17;;;0.73;;
50932;SDS011;36921;49.006;9.292;2023-11-19T05:39:15;1.88;;;1.23;;
50932;SDS011;36921;49.006;9.292;2023-11-19T05:41:41;1.52;;;0.77;;
50932;SDS011;36921;49.006;9.292;2023-11-19T05:44:06;1.10;;;0.80;;
50932;SDS011;36921;49.006;9.292;2023-11-19T05:46:31;1.40;;;0.90;;
50932;SDS011;36921;49.006;9.292;2023-11-19T05:48:57;2.17;;;0.63;;
50932;SDS011;36921;49.006;9.292;2023-11-19T05:51:22;1.00;;;0.70;;
50932;SDS011;36921;49.006;9.292;2023-11-19T05:53:48;1.42;;;0.65;;
50932;SDS011;36921;49.006;9.292;2023-11-19T05:56:15;1.70;;;0.80;;
50932;SDS011;36921;49.006;9.292;2023-11-19T05:58:46;0.93;;;0.68;;
50932;SDS011;36921;49.006;9.292;2023-11-19T06:01:13;0.85;;;0.55;;
50932;SDS011;36921;49.006;9.292;2023-11-19T06:03:38;0.68;;;0.50;;
50932;SDS011;36921;49.006;9.292;2023-11-19T06:06:03;1.73;;;0.65;;
50932;SDS011;36921;49.006;9.292;2023-11-19T06:08:30;3.58;;;0.77;;
50932;SDS011;36921;49.006;9.292;2023-11-19T06:10:55;0.70;;;0.57;;
50932;SDS011;36921;49.006;9.292;2023-11-19T06:13:21;1.33;;;1.00;;
50932;SDS011;36921;49.006;9.292;2023-11-19T06:15:46;1.63;;;1.00;;
50932;SDS011;36921;49.006;9.292;2023-11-19T06:18:12;9.98;;;8.40;;
50932;SDS011;36921;49.006;9.292;2023-11-19T06:20:37;11.52;;;7.88;;
50932;SDS011;36921;49.006;9.292;2023-11-19T06:23:03;9.88;;;5.82;;
50932;SDS011;36921;49.006;9.292;2023-11-19T06:25:28;4.03;;;3.00;;
50932;SDS011;36921;49.006;9.292;2023-11-19T06:27:53;3.00;;;1.80;;
50932;SDS011;36921;49.006;9.292;2023-11-19T06:30:19;3.63;;;1.65;;
50932;SDS011;36921;49.006;9.292;2023-11-19T06:32:45;5.18;;;1.50;;
50932;SDS011;36921;49.006;9.292;2023-11-19T06:35:10;3.42;;;1.60;;
50932;SDS011;36921;49.006;9.292;2023-11-19T06:37:38;3.15;;;1.67;;
50932;SDS011;36921;49.006;9.292;2023-11-19T06:40:03;2.60;;;1.00;;
50932;SDS011;36921;49.006;9.292;2023-11-19T06:42:30;1.75;;;0.80;;
50932;SDS011;36921;49.006;9.292;2023-11-19T06:44:55;3.25;;;1.35;;
50932;SDS011;36921;49.006;9.292;2023-11-19T06:47:22;2.55;;;1.42;;
50932;SDS011;36921;49.006;9.292;2023-11-19T06:49:47;2.40;;;1.23;;
50932;SDS011;36921;49.006;9.292;2023-11-19T06:52:12;3.60;;;1.30;;
50932;SDS011;36921;49.006;9.292;2023-11-19T06:54:38;2.88;;;1.92;;
50932;SDS011;36921;49.006;9.292;2023-11-19T06:57:04;4.85;;;2.78;;
50932;SDS011;36921;49.006;9.292;2023-11-19T06:59:30;2.88;;;2.30;;
50932;SDS011;36921;49.006;9.292;2023-11-19T07:01:55;3.75;;;2.45;;
50932;SDS011;36921;49.006;9.292;2023-11-19T07:04:21;4.25;;;3.25;;
50932;SDS011;36921;49.006;9.292;2023-11-19T07:06:47;5.15;;;4.65;;
50932;SDS011;36921;49.006;9.292;2023-11-19T07:09:13;3.05;;;2.50;;
50932;SDS011;36921;49.006;9.292;2023-11-19T07:11:39;2.63;;;1.30;;
50932;SDS011;36921;49.006;9.292;2023-11-19T07:14:06;0.98;;;0.88;;
50932;SDS011;36921;49.006;9.292;2023-11-19T07:16:32;1.90;;;0.93;;
50932;SDS011;36921;49.006;9.292;2023-11-19T07:18:59;0.93;;;0.65;;
50932;SDS011;36921;49.006;9.292;2023-11-19T07:21:25;0.60;;;0.60;;
50932;SDS011;36921;49.006;9.292;2023-11-19T07:23:53;1.33;;;1.00;;
50932;SDS011;36921;49.006;9.292;2023-11-19T07:26:18;1.30;;;1.00;;
50932;SDS011;36921;49.006;9.292;2023-11-19T07:28:43;3.95;;;0.80;;
50932;SDS011;36921;49.006;9.292;2023-11-19T07:31:10;0.80;;;0.55;;
50932;SDS011;36921;49.006;9.292;2023-11-19T07:33:35;1.48;;;0.50;;
50932;SDS011;36921;49.006;9.292;2023-11-19T07:36:00;1.80;;;0.50;;
50932;SDS011;36921;49.006;9.292;2023-11-19T07:38:26;2.00;;;0.70;;
50932;SDS011;36921;49.006;9.292;2023-11-19T07:40:51;1.67;;;1.00;;
50932;SDS011;36921;49.006;9.292;2023-11-19T07:43:16;1.73;;;1.23;;
50932;SDS011;36921;49.006;9.292;2023-11-19T07:45:42;1.98;;;1.27;;
50932;SDS011;36921;49.006;9.292;2023-11-19T07:48:08;2.35;;;1.02;;
50932;SDS011;36921;49.006;9.292;2023-11-19T07:50:34;1.80;;;1.23;;
50932;SDS011;36921;49.006;9.292;2023-11-19T07:52:59;1.85;;;0.75;;
50932;SDS011;36921;49.006;9.292;2023-11-19T07:55:25;2.45;;;1.10;;
50932;SDS011;36921;49.006;9.292;2023-11-19T07:57:50;1.60;;;0.90;;
50932;SDS011;36921;49.006;9.292;2023-11-19T08:00:16;2.45;;;1.40;;
50932;SDS011;36921;49.006;9.292;2023-11-19T08:02:41;8.32;;;6.60;;
50932;SDS011;36921;49.006;9.292;2023-11-19T08:05:06;5.60;;;4.35;;
50932;SDS011;36921;49.006;9.292;2023-11-19T08:07:32;3.28;;;1.48;;
50932;SDS011;36921;49.006;9.292;2023-11-19T08:09:57;2.05;;;1.10;;
50932;SDS011;36921;49.006;9.292;2023-11-19T08:12:22;8.52;;;1.33;;
50932;SDS011;36921;49.006;9.292;2023-11-19T08:14:48;4.95;;;1.75;;
50932;SDS011;36921;49.006;9.292;2023-11-19T08:17:14;2.78;;;1.77;;
50932;SDS011;36921;49.006;9.292;2023-11-19T08:19:39;6.82;;;3.42;;
50932;SDS011;36921;49.006;9.292;2023-11-19T08:22:04;4.97;;;3.70;;
50932;SDS011;36921;49.006;9.292;2023-11-19T08:24:30;3.10;;;2.67;;
50932;SDS011;36921;49.006;9.292;2023-11-19T08:26:55;3.47;;;1.70;;
50932;SDS011;36921;49.006;9.292;2023-11-19T08:29:20;3.15;;;1.88;;
50932;SDS011;36921;49.006;9.292;2023-11-19T08:31:46;4.15;;;2.03;;
50932;SDS011;36921;49.006;9.292;2023-11-19T08:34:11;7.10;;;2.88;;
50932;SDS011;36921;49.006;9.292;2023-11-19T08:36:37;6.50;;;2.78;;
50932;SDS011;36921;49.006;9.292;2023-11-19T08:39:02;4.63;;;2.70;;
50932;SDS011;36921;49.006;9.292;2023-11-19T08:41:28;4.50;;;2.90;;
50932;SDS011;36921;49.006;9.292;2023-11-19T08:43:53;4.45;;;2.80;;
50932;SDS011;36921;49.006;9.292;2023-11-19T08:46:18;4.45;;;2.63;;
50932;SDS011;36921;49.006;9.292;2023-11-19T08:48:44;3.65;;;2.42;;
50932;SDS011;36921;49.006;9.292;2023-11-19T08:51:09;4.35;;;3.00;;
50932;SDS011;36921;49.006;9.292;2023-11-19T08:53:34;3.80;;;2.35;;
50932;SDS011;36921;49.006;9.292;2023-11-19T08:56:00;5.45;;;1.60;;
50932;SDS011;36921;49.006;9.292;2023-11-19T08:58:27;2.28;;;1.30;;
50932;SDS011;36921;49.006;9.292;2023-11-19T09:00:53;2.10;;;1.05;;
50932;SDS011;36921;49.006;9.292;2023-11-19T09:03:18;10.13;;;5.97;;
50932;SDS011;36921;49.006;9.292;2023-11-19T09:05:43;2.47;;;1.40;;
50932;SDS011;36921;49.006;9.292;2023-11-19T09:08:09;2.22;;;1.17;;
50932;SDS011;36921;49.006;9.292;2023-11-19T09:10:36;0.90;;;0.60;;
50932;SDS011;36921;49.006;9.292;2023-11-19T09:13:01;1.83;;;1.00;;
50932;SDS011;36921;49.006;9.292;2023-11-19T09:15:27;1.70;;;0.90;;
50932;SDS011;36921;49.006;9.292;2023-11-19T09:17:52;1.83;;;0.80;;
50932;SDS011;36921;49.006;9.292;2023-11-19T09:20:17;1.60;;;0.70;;
50932;SDS011;36921;49.006;9.292;2023-11-19T09:22:43;0.90;;;0.70;;
50932;SDS011;36921;49.006;9.292;2023-11-19T09:25:08;3.42;;;0.57;;
50932;SDS011;36921;49.006;9.292;2023-11-19T09:27:34;2.75;;;0.60;;
50932;SDS011;36921;49.006;9.292;2023-11-19T09:29:59;2.70;;;0.57;;
50932;SDS011;36921;49.006;9.292;2023-11-19T09:32:25;2.55;;;0.55;;
50932;SDS011;36921;49.006;9.292;2023-11-19T09:34:50;3.38;;;0.30;;
50932;SDS011;36921;49.006;9.292;2023-11-19T09:37:16;0.82;;;0.40;;
50932;SDS011;36921;49.006;9.292;2023-11-19T09:39:41;0.63;;;0.40;;
50932;SDS011;36921;49.006;9.292;2023-11-19T09:42:08;1.70;;;0.80;;
50932;SDS011;36921;49.006;9.292;2023-11-19T09:44:34;5.90;;;0.93;;
50932;SDS011;36921;49.006;9.292;2023-11-19T09:47:01;1.63;;;1.20;;
50932;SDS011;36921;49.006;9.292;2023-11-19T09:49:27;2.47;;;1.27;;
50932;SDS011;36921;49.006;9.292;2023-11-19T09:51:53;3.25;;;2.00;;
50932;SDS011;36921;49.006;9.292;2023-11-19T09:54:19;2.38;;;0.70;;
50932;SDS011;36921;49.006;9.292;2023-11-19T09:56:44;3.33;;;0.73;;
50932;SDS011;36921;49.006;9.292;2023-11-19T09:59:11;2.50;;;0.60;;
50932;SDS011;36921;49.006;9.292;2023-11-19T10:01:38;1.73;;;0.40;;
50932;SDS011;36921;49.006;9.292;2023-11-19T10:04:03;0.80;;;0.28;;
50932;SDS011;36921;49.006;9.292;2023-11-19T10:06:31;1.85;;;0.22;;
50932;SDS011;36921;49.006;9.292;2023-11-19T10:08:56;0.93;;;0.40;;
50932;SDS011;36921;49.006;9.292;2023-11-19T10:11:22;2.10;;;0.32;;
50932;SDS011;36921;49.006;9.292;2023-11-19T10:13:47;1.77;;;0.10;;
50932;SDS011;36921;49.006;9.292;2023-11-19T10:16:13;2.85;;;0.30;;
50932;SDS011;36921;49.006;9.292;2023-11-19T10:18:45;1.95;;;0.20;;
50932;SDS011;36921;49.006;9.292;2023-11-19T10:21:13;1.83;;;0.60;;
50932;SDS011;36921;49.006;9.292;2023-11-19T10:23:51;4.47;;;0.40;;
50932;SDS011;36921;49.006;9.292;2023-11-19T10:26:19;2.90;;;0.50;;
50932;SDS011;36921;49.006;9.292;2023-11-19T10:28:45;0.43;;;0.13;;
50932;SDS011;36921;49.006;9.292;2023-11-19T10:31:15;1.23;;;0.20;;
50932;SDS011;36921;49.006;9.292;2023-11-19T10:33:41;0.60;;;0.20;;
50932;SDS011;36921;49.006;9.292;2023-11-19T10:36:07;1.75;;;0.40;;
50932;SDS011;36921;49.006;9.292;2023-11-19T10:38:32;1.55;;;0.30;;
50932;SDS011;36921;49.006;9.292;2023-11-19T10:40:58;1.00;;;0.20;;
50932;SDS011;36921;49.006;9.292;2023-11-19T10:43:24;4.68;;;0.20;;
50932;SDS011;36921;49.006;9.292;2023-11-19T10:45:50;2.17;;;0.57;;
50932;SDS011;36921;49.006;9.292;2023-11-19T10:48:15;1.88;;;0.40;;
50932;SDS011;36921;49.006;9.292;2023-11-19T10:50:42;4.97;;;1.58;;
50932;SDS011;36921;49.006;9.292;2023-11-19T10:53:10;3.00;;;1.15;;
50932;SDS011;36921;49.006;9.292;2023-11-19T10:55:40;2.75;;;1.52;;
50932;SDS011;36921;49.006;9.292;2023-11-19T10:58:09;10.63;;;3.97;;
50932;SDS011;36921;49.006;9.292;2023-11-19T11:00:44;1.83;;;0.30;;
50932;SDS011;36921;49.006;9.292;2023-11-19T11:03:20;2.30;;;0.50;;
50932;SDS011;36921;49.006;9.292;2023-11-19T11:05:48;2.00;;;0.40;;
50932;SDS011;36921;49.006;9.292;2023-11-19T11:08:14;0.95;;;0.60;;
50932;SDS011;36921;49.006;9.292;2023-11-19T11:10:44;1.75;;;0.30;;
50932;SDS011;36921;49.006;9.292;2023-11-19T11:13:22;3.70;;;0.40;;
50932;SDS011;36921;49.006;9.292;2023-11-19T11:15:48;2.38;;;0.43;;
50932;SDS011;36921;49.006;9.292;2023-11-19T11:18:15;1.95;;;0.30;;
50932;SDS011;36921;49.006;9.292;2023-11-19T11:20:42;1.55;;;0.43;;
50932;SDS011;36921;49.006;9.292;2023-11-19T11:29:57;1.33;;;0.38;;
50932;SDS011;36921;49.006;9.292;2023-11-19T11:32:30;2.30;;;0.60;;
50932;SDS011;36921;49.006;9.292;2023-11-19T11:35:08;3.33;;;0.50;;
50932;SDS011;36921;49.006;9.292;2023-11-19T11:38:10;2.42;;;0.50;;
50932;SDS011;36921;49.006;9.292;2023-11-19T11:40:34;2.42;;;0.40;;
50932;SDS011;36921;49.006;9.292;2023-11-19T11:43:01;5.78;;;0.30;;
50932;SDS011;36921;49.006;9.292;2023-11-19T11:45:36;3.67;;;0.47;;
50932;SDS011;36921;49.006;9.292;2023-11-19T11:50:31;1.05;;;0.40;;
50932;SDS011;36921;49.006;9.292;2023-11-19T11:55:33;1.05;;;0.30;;
50932;SDS011;36921;49.006;9.292;2023-11-19T11:58:17;2.55;;;0.32;;
50932;SDS011;36921;49.006;9.292;2023-11-19T12:00:43;0.68;;;0.20;;
50932;SDS011;36921;49.006;9.292;2023-11-19T12:03:08;2.15;;;0.40;;
50932;SDS011;36921;49.006;9.292;2023-11-19T12:05:42;2.95;;;0.30;;
50932;SDS011;36921;49.006;9.292;2023-11-19T12:08:12;1.42;;;0.55;;
50932;SDS011;36921;49.006;9.292;2023-11-19T12:10:55;3.00;;;0.52;;
50932;SDS011;36921;49.006;9.292;2023-11-19T12:13:23;1.30;;;0.38;;
50932;SDS011;36921;49.006;9.292;2023-11-19T12:18:23;2.88;;;0.43;;
50932;SDS011;36921;49.006;9.292;2023-11-19T12:20:51;1.35;;;0.40;;
50932;SDS011;36921;49.006;9.292;2023-11-19T12:23:16;2.53;;;0.50;;
50932;SDS011;36921;49.006;9.292;2023-11-19T12:25:42;0.80;;;0.20;;
50932;SDS011;36921;49.006;9.292;2023-11-19T12:28:13;2.42;;;0.30;;
50932;SDS011;36921;49.006;9.292;2023-11-19T12:30:42;1.33;;;0.28;;
50932;SDS011;36921;49.006;9.292;2023-11-19T12:33:08;3.20;;;0.30;;
50932;SDS011;36921;49.006;9.292;2023-11-19T12:35:38;0.93;;;0.50;;
50932;SDS011;36921;49.006;9.292;2023-11-19T12:38:07;0.80;;;0.40;;
50932;SDS011;36921;49.006;9.292;2023-11-19T12:40:33;1.02;;;0.40;;
50932;SDS011;36921;49.006;9.292;2023-11-19T12:42:59;0.68;;;0.40;;
50932;SDS011;36921;49.006;9.292;2023-11-19T12:45:27;2.42;;;0.20;;
50932;SDS011;36921;49.006;9.292;2023-11-19T12:48:06;0.47;;;0.20;;
50932;SDS011;36921;49.006;9.292;2023-11-19T12:53:17;3.58;;;0.40;;
50932;SDS011;36921;49.006;9.292;2023-11-19T12:55:43;1.30;;;0.32;;
50932;SDS011;36921;49.006;9.292;2023-11-19T12:58:08;0.45;;;0.20;;
50932;SDS011;36921;49.006;9.292;2023-11-19T13:00:34;2.10;;;0.50;;
50932;SDS011;36921;49.006;9.292;2023-11-19T13:02:59;0.80;;;0.30;;
50932;SDS011;36921;49.006;9.292;2023-11-19T13:07:59;1.52;;;0.55;;
50932;SDS011;36921;49.006;9.292;2023-11-19T13:10:50;1.92;;;0.43;;
50932;SDS011;36921;49.006;9.292;2023-11-19T13:13:17;1.30;;;0.50;;
50932;SDS011;36921;49.006;9.292;2023-11-19T13:15:42;2.03;;;0.60;;
50932;SDS011;36921;49.006;9.292;2023-11-19T13:18:09;0.88;;;0.45;;
50932;SDS011;36921;49.006;9.292;2023-11-19T13:20:35;1.80;;;0.30;;
50932;SDS011;36921;49.006;9.292;2023-11-19T13:23:02;2.50;;;0.60;;
50932;SDS011;36921;49.006;9.292;2023-11-19T13:25:29;0.80;;;0.25;;
50932;SDS011;36921;49.006;9.292;2023-11-19T13:27:55;0.75;;;0.20;;
50932;SDS011;36921;49.006;9.292;2023-11-19T13:30:21;0.85;;;0.35;;
50932;SDS011;36921;49.006;9.292;2023-11-19T13:32:47;3.35;;;0.45;;
50932;SDS011;36921;49.006;9.292;2023-11-19T13:35:13;3.83;;;0.32;;
50932;SDS011;36921;49.006;9.292;2023-11-19T13:37:39;1.05;;;0.40;;
50932;SDS011;36921;49.006;9.292;2023-11-19T13:40:06;1.92;;;0.20;;
50932;SDS011;36921;49.006;9.292;2023-11-19T13:42:32;2.05;;;0.40;;
50932;SDS011;36921;49.006;9.292;2023-11-19T13:44:57;1.20;;;0.30;;
50932;SDS011;36921;49.006;9.292;2023-11-19T13:47:23;1.58;;;0.40;;
50932;SDS011;36921;49.006;9.292;2023-11-19T13:49:49;0.50;;;0.30;;
50932;SDS011;36921;49.006;9.292;2023-11-19T13:52:14;1.00;;;0.30;;
50932;SDS011;36921;49.006;9.292;2023-11-19T13:54:39;1.85;;;0.40;;
50932;SDS011;36921;49.006;9.292;2023-11-19T13:57:05;2.95;;;0.45;;
50932;SDS011;36921;49.006;9.292;2023-11-19T13:59:30;1.33;;;0.28;;
50932;SDS011;36921;49.006;9.292;2023-11-19T14:01:57;1.63;;;0.40;;
50932;SDS011;36921;49.006;9.292;2023-11-19T14:04:23;2.03;;;0.55;;
50932;SDS011;36921;49.006;9.292;2023-11-19T14:06:48;3.03;;;0.40;;
50932;SDS011;36921;49.006;9.292;2023-11-19T14:09:13;0.95;;;0.40;;
50932;SDS011;36921;49.006;9.292;2023-11-19T14:11:39;0.90;;;0.40;;
50932;SDS011;36921;49.006;9.292;2023-11-19T14:14:05;2.13;;;0.30;;
50932;SDS011;36921;49.006;9.292;2023-11-19T14:16:31;1.80;;;0.38;;
50932;SDS011;36921;49.006;9.292;2023-11-19T14:18:57;0.60;;;0.25;;
50932;SDS011;36921;49.006;9.292;2023-11-19T14:21:22;1.45;;;0.40;;
50932;SDS011;36921;49.006;9.292;2023-11-19T14:23:48;2.47;;;0.60;;
50932;SDS011;36921;49.006;9.292;2023-11-19T14:26:13;0.70;;;0.30;;
50932;SDS011;36921;49.006;9.292;2023-11-19T14:28:38;2.17;;;0.28;;
50932;SDS011;36921;49.006;9.292;2023-11-19T14:31:04;1.20;;;0.30;;
50932;SDS011;36921;49.006;9.292;2023-11-19T14:33:30;0.90;;;0.30;;
50932;SDS011;36921;49.006;9.292;2023-11-19T14:35:55;3.10;;;0.50;;
50932;SDS011;36921;49.006;9.292;2023-11-19T14:38:20;2.05;;;0.52;;
50932;SDS011;36921;49.006;9.292;2023-11-19T14:40:46;2.13;;;0.50;;
50932;SDS011;36921;49.006;9.292;2023-11-19T14:43:11;3.60;;;0.40;;
50932;SDS011;36921;49.006;9.292;2023-11-19T14:45:36;2.10;;;0.43;;
50932;SDS011;36921;49.006;9.292;2023-11-19T14:48:02;1.55;;;0.32;;
50932;SDS011;36921;49.006;9.292;2023-11-19T14:50:27;1.23;;;0.28;;
50932;SDS011;36921;49.006;9.292;2023-11-19T14:52:53;10.02;;;0.85;;
50932;SDS011;36921;49.006;9.292;2023-11-19T14:55:18;7.32;;;0.70;;
50932;SDS011;36921;49.006;9.292;2023-11-19T14:57:44;0.68;;;0.20;;
50932;SDS011;36921;49.006;9.292;2023-11-19T15:00:09;2.67;;;0.30;;
50932;SDS011;36921;49.006;9.292;2023-11-19T15:02:38;1.83;;;0.40;;
50932;SDS011;36921;49.006;9.292;2023-11-19T15:05:07;2.83;;;0.32;;
50932;SDS011;36921;49.006;9.292;2023-11-19T15:07:35;0.77;;;0.20;;